sensor_id;sensor_type;location;lat;lon;timestamp;P1;durP1;ratioP1;P2;durP2;ratioP2
20073;SDS011;10197;54.282;10.078;2023-07-08T00:02:11;6.18;;;5.07;;
20073;SDS011;10197;54.282;10.078;2023-07-08T00:04:39;5.88;;;5.28;;
20073;SDS011;10197;54.282;10.078;2023-07-08T00:07:08;6.15;;;5.13;;
20073;SDS011;10197;54.282;10.078;2023-07-08T00:09:38;6.93;;;5.93;;
20073;SDS011;10197;54.282;10.078;2023-07-08T00:12:08;7.05;;;5.40;;
20073;SDS011;10197;54.282;10.078;2023-07-08T00:14:37;6.78;;;5.30;;
20073;SDS011;10197;54.282;10.078;2023-07-08T00:17:07;5.57;;;5.07;;
20073;SDS011;10197;54.282;10.078;2023-07-08T00:19:36;7.40;;;5.22;;
20073;SDS011;10197;54.282;10.078;2023-07-08T00:22:07;6.03;;;5.10;;
20073;SDS011;10197;54.282;10.078;2023-07-08T00:24:36;5.85;;;5.32;;
20073;SDS011;10197;54.282;10.078;2023-07-08T00:27:04;5.97;;;5.43;;
20073;SDS011;10197;54.282;10.078;2023-07-08T00:29:31;5.95;;;5.13;;
20073;SDS011;10197;54.282;10.078;2023-07-08T00:31:58;6.10;;;5.50;;
20073;SDS011;10197;54.282;10.078;2023-07-08T00:34:25;5.30;;;4.80;;
20073;SDS011;10197;54.282;10.078;2023-07-08T00:36:52;5.80;;;5.22;;
20073;SDS011;10197;54.282;10.078;2023-07-08T00:39:19;7.32;;;5.95;;
20073;SDS011;10197;54.282;10.078;2023-07-08T00:41:46;5.68;;;5.18;;
20073;SDS011;10197;54.282;10.078;2023-07-08T00:44:15;7.10;;;6.32;;
20073;SDS011;10197;54.282;10.078;2023-07-08T00:46:46;5.90;;;5.40;;
20073;SDS011;10197;54.282;10.078;2023-07-08T00:49:21;6.85;;;6.22;;
20073;SDS011;10197;54.282;10.078;2023-07-08T00:51:51;6.40;;;5.80;;
20073;SDS011;10197;54.282;10.078;2023-07-08T00:54:18;6.32;;;5.60;;
20073;SDS011;10197;54.282;10.078;2023-07-08T00:56:46;7.60;;;6.30;;
20073;SDS011;10197;54.282;10.078;2023-07-08T00:59:17;7.18;;;6.47;;
20073;SDS011;10197;54.282;10.078;2023-07-08T01:01:46;8.00;;;6.50;;
20073;SDS011;10197;54.282;10.078;2023-07-08T01:04:14;6.18;;;5.57;;
20073;SDS011;10197;54.282;10.078;2023-07-08T01:06:53;6.68;;;5.97;;
20073;SDS011;10197;54.282;10.078;2023-07-08T01:09:24;6.25;;;5.63;;
20073;SDS011;10197;54.282;10.078;2023-07-08T01:11:56;6.43;;;5.70;;
20073;SDS011;10197;54.282;10.078;2023-07-08T01:14:26;7.03;;;6.32;;
20073;SDS011;10197;54.282;10.078;2023-07-08T01:16:53;8.50;;;5.40;;
20073;SDS011;10197;54.282;10.078;2023-07-08T01:19:21;6.82;;;6.13;;
20073;SDS011;10197;54.282;10.078;2023-07-08T01:22:00;5.78;;;5.20;;
20073;SDS011;10197;54.282;10.078;2023-07-08T01:24:27;7.80;;;5.60;;
20073;SDS011;10197;54.282;10.078;2023-07-08T01:26:57;5.68;;;5.18;;
20073;SDS011;10197;54.282;10.078;2023-07-08T01:29:24;6.18;;;5.57;;
20073;SDS011;10197;54.282;10.078;2023-07-08T01:31:51;6.20;;;5.60;;
20073;SDS011;10197;54.282;10.078;2023-07-08T01:34:18;5.95;;;5.45;;
20073;SDS011;10197;54.282;10.078;2023-07-08T01:36:46;5.97;;;5.40;;
20073;SDS011;10197;54.282;10.078;2023-07-08T01:39:16;6.82;;;5.57;;
20073;SDS011;10197;54.282;10.078;2023-07-08T01:41:44;5.90;;;5.32;;
20073;SDS011;10197;54.282;10.078;2023-07-08T01:44:19;5.57;;;5.07;;
20073;SDS011;10197;54.282;10.078;2023-07-08T01:46:47;5.30;;;4.85;;
20073;SDS011;10197;54.282;10.078;2023-07-08T01:49:14;7.40;;;5.50;;
20073;SDS011;10197;54.282;10.078;2023-07-08T01:51:41;8.30;;;5.53;;
20073;SDS011;10197;54.282;10.078;2023-07-08T01:54:09;4.80;;;4.20;;
20073;SDS011;10197;54.282;10.078;2023-07-08T01:56:39;5.65;;;4.72;;
20073;SDS011;10197;54.282;10.078;2023-07-08T01:59:06;5.10;;;4.65;;
20073;SDS011;10197;54.282;10.078;2023-07-08T02:01:33;7.18;;;4.82;;
20073;SDS011;10197;54.282;10.078;2023-07-08T02:04:00;5.32;;;4.82;;
20073;SDS011;10197;54.282;10.078;2023-07-08T02:06:26;6.70;;;4.25;;
20073;SDS011;10197;54.282;10.078;2023-07-08T02:08:54;4.47;;;4.07;;
20073;SDS011;10197;54.282;10.078;2023-07-08T02:11:24;4.72;;;4.32;;
20073;SDS011;10197;54.282;10.078;2023-07-08T02:13:52;5.05;;;4.60;;
20073;SDS011;10197;54.282;10.078;2023-07-08T02:16:20;5.60;;;5.10;;
20073;SDS011;10197;54.282;10.078;2023-07-08T02:18:47;5.60;;;5.10;;
20073;SDS011;10197;54.282;10.078;2023-07-08T02:21:14;5.38;;;4.88;;
20073;SDS011;10197;54.282;10.078;2023-07-08T02:23:45;5.25;;;4.75;;
20073;SDS011;10197;54.282;10.078;2023-07-08T02:26:16;5.72;;;5.22;;
20073;SDS011;10197;54.282;10.078;2023-07-08T02:28:43;6.60;;;5.25;;
20073;SDS011;10197;54.282;10.078;2023-07-08T02:31:11;6.13;;;5.35;;
20073;SDS011;10197;54.282;10.078;2023-07-08T02:33:38;5.05;;;4.65;;
20073;SDS011;10197;54.282;10.078;2023-07-08T02:36:05;5.20;;;4.80;;
20073;SDS011;10197;54.282;10.078;2023-07-08T02:38:32;5.20;;;4.70;;
20073;SDS011;10197;54.282;10.078;2023-07-08T02:40:59;4.72;;;4.32;;
20073;SDS011;10197;54.282;10.078;2023-07-08T02:43:26;5.25;;;4.75;;
20073;SDS011;10197;54.282;10.078;2023-07-08T02:45:53;5.72;;;4.88;;
20073;SDS011;10197;54.282;10.078;2023-07-08T02:48:21;5.55;;;5.05;;
20073;SDS011;10197;54.282;10.078;2023-07-08T02:50:48;5.68;;;5.10;;
20073;SDS011;10197;54.282;10.078;2023-07-08T02:53:15;5.85;;;5.25;;
20073;SDS011;10197;54.282;10.078;2023-07-08T02:55:42;5.75;;;5.28;;
20073;SDS011;10197;54.282;10.078;2023-07-08T02:58:09;5.50;;;5.03;;
20073;SDS011;10197;54.282;10.078;2023-07-08T03:00:36;8.13;;;5.18;;
20073;SDS011;10197;54.282;10.078;2023-07-08T03:03:03;5.63;;;4.93;;
20073;SDS011;10197;54.282;10.078;2023-07-08T03:05:31;5.95;;;5.22;;
20073;SDS011;10197;54.282;10.078;2023-07-08T03:07:59;6.00;;;5.50;;
20073;SDS011;10197;54.282;10.078;2023-07-08T03:10:26;5.93;;;5.32;;
20073;SDS011;10197;54.282;10.078;2023-07-08T03:12:53;6.03;;;5.50;;
20073;SDS011;10197;54.282;10.078;2023-07-08T03:15:21;6.10;;;5.50;;
20073;SDS011;10197;54.282;10.078;2023-07-08T03:17:49;5.88;;;5.38;;
20073;SDS011;10197;54.282;10.078;2023-07-08T03:20:16;5.57;;;5.07;;
20073;SDS011;10197;54.282;10.078;2023-07-08T03:22:44;6.38;;;5.40;;
20073;SDS011;10197;54.282;10.078;2023-07-08T03:25:11;7.18;;;6.10;;
20073;SDS011;10197;54.282;10.078;2023-07-08T03:27:38;6.25;;;5.75;;
20073;SDS011;10197;54.282;10.078;2023-07-08T03:30:05;5.90;;;5.38;;
20073;SDS011;10197;54.282;10.078;2023-07-08T03:32:34;6.03;;;5.43;;
20073;SDS011;10197;54.282;10.078;2023-07-08T03:35:01;6.15;;;5.55;;
20073;SDS011;10197;54.282;10.078;2023-07-08T03:37:29;5.70;;;5.15;;
20073;SDS011;10197;54.282;10.078;2023-07-08T03:39:57;6.65;;;6.00;;
20073;SDS011;10197;54.282;10.078;2023-07-08T03:42:25;6.60;;;5.88;;
20073;SDS011;10197;54.282;10.078;2023-07-08T03:44:52;6.05;;;5.45;;
20073;SDS011;10197;54.282;10.078;2023-07-08T03:47:22;5.97;;;5.35;;
20073;SDS011;10197;54.282;10.078;2023-07-08T03:49:49;6.25;;;5.53;;
20073;SDS011;10197;54.282;10.078;2023-07-08T03:52:16;5.63;;;5.13;;
20073;SDS011;10197;54.282;10.078;2023-07-08T03:54:44;5.63;;;5.05;;
20073;SDS011;10197;54.282;10.078;2023-07-08T03:57:13;5.65;;;5.13;;
20073;SDS011;10197;54.282;10.078;2023-07-08T03:59:42;6.30;;;5.70;;
20073;SDS011;10197;54.282;10.078;2023-07-08T04:02:10;6.35;;;5.40;;
20073;SDS011;10197;54.282;10.078;2023-07-08T04:04:38;5.25;;;4.78;;
20073;SDS011;10197;54.282;10.078;2023-07-08T04:07:05;6.03;;;5.30;;
20073;SDS011;10197;54.282;10.078;2023-07-08T04:09:32;5.30;;;4.90;;
20073;SDS011;10197;54.282;10.078;2023-07-08T04:11:59;5.97;;;5.47;;
20073;SDS011;10197;54.282;10.078;2023-07-08T04:14:27;5.68;;;5.10;;
20073;SDS011;10197;54.282;10.078;2023-07-08T04:16:55;5.60;;;4.95;;
20073;SDS011;10197;54.282;10.078;2023-07-08T04:19:23;5.80;;;5.30;;
20073;SDS011;10197;54.282;10.078;2023-07-08T04:21:52;5.45;;;4.95;;
20073;SDS011;10197;54.282;10.078;2023-07-08T04:24:19;6.82;;;5.40;;
20073;SDS011;10197;54.282;10.078;2023-07-08T04:26:46;5.72;;;4.85;;
20073;SDS011;10197;54.282;10.078;2023-07-08T04:29:14;5.40;;;5.00;;
20073;SDS011;10197;54.282;10.078;2023-07-08T04:31:44;5.43;;;5.03;;
20073;SDS011;10197;54.282;10.078;2023-07-08T04:34:11;5.63;;;5.10;;
20073;SDS011;10197;54.282;10.078;2023-07-08T04:36:38;5.20;;;4.70;;
20073;SDS011;10197;54.282;10.078;2023-07-08T04:39:06;5.68;;;5.18;;
20073;SDS011;10197;54.282;10.078;2023-07-08T04:41:35;5.25;;;4.80;;
20073;SDS011;10197;54.282;10.078;2023-07-08T04:44:06;5.05;;;4.65;;
20073;SDS011;10197;54.282;10.078;2023-07-08T04:46:35;6.18;;;5.03;;
20073;SDS011;10197;54.282;10.078;2023-07-08T04:49:07;5.78;;;4.97;;
20073;SDS011;10197;54.282;10.078;2023-07-08T04:51:35;5.10;;;4.60;;
20073;SDS011;10197;54.282;10.078;2023-07-08T04:54:02;5.65;;;4.80;;
20073;SDS011;10197;54.282;10.078;2023-07-08T04:56:36;5.40;;;4.90;;
20073;SDS011;10197;54.282;10.078;2023-07-08T04:59:04;6.97;;;4.80;;
20073;SDS011;10197;54.282;10.078;2023-07-08T05:01:32;5.88;;;5.00;;
20073;SDS011;10197;54.282;10.078;2023-07-08T05:03:59;5.28;;;4.43;;
20073;SDS011;10197;54.282;10.078;2023-07-08T05:06:27;5.75;;;4.80;;
20073;SDS011;10197;54.282;10.078;2023-07-08T05:08:54;5.38;;;4.72;;
20073;SDS011;10197;54.282;10.078;2023-07-08T05:11:21;5.20;;;4.70;;
20073;SDS011;10197;54.282;10.078;2023-07-08T05:13:48;4.72;;;4.28;;
20073;SDS011;10197;54.282;10.078;2023-07-08T05:16:15;5.75;;;4.88;;
20073;SDS011;10197;54.282;10.078;2023-07-08T05:18:42;5.30;;;4.80;;
20073;SDS011;10197;54.282;10.078;2023-07-08T05:21:09;6.35;;;4.97;;
20073;SDS011;10197;54.282;10.078;2023-07-08T05:23:37;4.93;;;4.50;;
20073;SDS011;10197;54.282;10.078;2023-07-08T05:26:04;5.50;;;4.90;;
20073;SDS011;10197;54.282;10.078;2023-07-08T05:28:32;5.00;;;4.30;;
20073;SDS011;10197;54.282;10.078;2023-07-08T05:31:00;5.50;;;4.82;;
20073;SDS011;10197;54.282;10.078;2023-07-08T05:33:28;5.13;;;4.63;;
20073;SDS011;10197;54.282;10.078;2023-07-08T05:35:56;5.85;;;4.95;;
20073;SDS011;10197;54.282;10.078;2023-07-08T05:38:23;5.78;;;4.93;;
20073;SDS011;10197;54.282;10.078;2023-07-08T05:40:54;6.25;;;4.82;;
20073;SDS011;10197;54.282;10.078;2023-07-08T05:43:21;6.10;;;4.70;;
20073;SDS011;10197;54.282;10.078;2023-07-08T05:45:48;7.13;;;5.03;;
20073;SDS011;10197;54.282;10.078;2023-07-08T05:48:15;5.00;;;4.60;;
20073;SDS011;10197;54.282;10.078;2023-07-08T05:50:44;7.68;;;5.40;;
20073;SDS011;10197;54.282;10.078;2023-07-08T05:53:11;6.40;;;4.78;;
20073;SDS011;10197;54.282;10.078;2023-07-08T05:55:39;5.05;;;4.55;;
20073;SDS011;10197;54.282;10.078;2023-07-08T05:58:09;8.38;;;4.50;;
20073;SDS011;10197;54.282;10.078;2023-07-08T06:00:36;5.13;;;4.30;;
20073;SDS011;10197;54.282;10.078;2023-07-08T06:03:03;5.60;;;4.00;;
20073;SDS011;10197;54.282;10.078;2023-07-08T06:05:29;6.82;;;4.50;;
20073;SDS011;10197;54.282;10.078;2023-07-08T06:07:58;4.75;;;4.35;;
20073;SDS011;10197;54.282;10.078;2023-07-08T06:10:25;5.05;;;3.40;;
20073;SDS011;10197;54.282;10.078;2023-07-08T06:12:52;14.48;;;4.60;;
20073;SDS011;10197;54.282;10.078;2023-07-08T06:15:20;5.15;;;3.83;;
20073;SDS011;10197;54.282;10.078;2023-07-08T06:17:47;8.68;;;6.38;;
20073;SDS011;10197;54.282;10.078;2023-07-08T06:20:14;8.52;;;5.97;;
20073;SDS011;10197;54.282;10.078;2023-07-08T06:22:41;7.18;;;5.95;;
20073;SDS011;10197;54.282;10.078;2023-07-08T06:25:10;6.80;;;5.63;;
20073;SDS011;10197;54.282;10.078;2023-07-08T06:27:37;6.32;;;5.15;;
20073;SDS011;10197;54.282;10.078;2023-07-08T06:30:05;5.40;;;4.30;;
20073;SDS011;10197;54.282;10.078;2023-07-08T06:32:34;5.05;;;4.32;;
20073;SDS011;10197;54.282;10.078;2023-07-08T06:35:02;5.28;;;3.83;;
20073;SDS011;10197;54.282;10.078;2023-07-08T06:37:29;5.05;;;3.85;;
20073;SDS011;10197;54.282;10.078;2023-07-08T06:39:57;4.93;;;4.07;;
20073;SDS011;10197;54.282;10.078;2023-07-08T06:42:24;4.47;;;3.65;;
20073;SDS011;10197;54.282;10.078;2023-07-08T06:44:59;4.20;;;3.47;;
20073;SDS011;10197;54.282;10.078;2023-07-08T06:47:28;5.18;;;3.80;;
20073;SDS011;10197;54.282;10.078;2023-07-08T06:49:57;5.63;;;3.88;;
20073;SDS011;10197;54.282;10.078;2023-07-08T06:52:24;5.95;;;4.18;;
20073;SDS011;10197;54.282;10.078;2023-07-08T06:54:51;4.38;;;3.83;;
20073;SDS011;10197;54.282;10.078;2023-07-08T06:57:18;5.72;;;3.80;;
20073;SDS011;10197;54.282;10.078;2023-07-08T06:59:44;5.95;;;3.80;;
20073;SDS011;10197;54.282;10.078;2023-07-08T07:02:11;6.57;;;3.72;;
20073;SDS011;10197;54.282;10.078;2023-07-08T07:04:38;5.30;;;4.00;;
20073;SDS011;10197;54.282;10.078;2023-07-08T07:07:07;5.43;;;3.70;;
20073;SDS011;10197;54.282;10.078;2023-07-08T07:09:34;10.48;;;3.78;;
20073;SDS011;10197;54.282;10.078;2023-07-08T07:12:01;6.22;;;3.90;;
20073;SDS011;10197;54.282;10.078;2023-07-08T07:14:28;7.72;;;4.20;;
20073;SDS011;10197;54.282;10.078;2023-07-08T07:16:55;6.88;;;3.95;;
20073;SDS011;10197;54.282;10.078;2023-07-08T07:19:22;6.30;;;3.88;;
20073;SDS011;10197;54.282;10.078;2023-07-08T07:21:49;4.60;;;3.80;;
20073;SDS011;10197;54.282;10.078;2023-07-08T07:24:17;6.82;;;3.53;;
20073;SDS011;10197;54.282;10.078;2023-07-08T07:26:45;5.97;;;3.95;;
20073;SDS011;10197;54.282;10.078;2023-07-08T07:29:13;4.45;;;3.45;;
20073;SDS011;10197;54.282;10.078;2023-07-08T07:31:42;6.53;;;4.00;;
20073;SDS011;10197;54.282;10.078;2023-07-08T07:34:09;3.78;;;3.33;;
20073;SDS011;10197;54.282;10.078;2023-07-08T07:36:37;3.45;;;3.15;;
20073;SDS011;10197;54.282;10.078;2023-07-08T07:39:04;7.75;;;3.80;;
20073;SDS011;10197;54.282;10.078;2023-07-08T07:41:32;7.38;;;4.10;;
20073;SDS011;10197;54.282;10.078;2023-07-08T07:43:59;4.95;;;4.30;;
20073;SDS011;10197;54.282;10.078;2023-07-08T07:46:25;5.22;;;4.30;;
20073;SDS011;10197;54.282;10.078;2023-07-08T07:48:52;4.88;;;3.75;;
20073;SDS011;10197;54.282;10.078;2023-07-08T07:51:19;5.28;;;3.47;;
20073;SDS011;10197;54.282;10.078;2023-07-08T07:53:46;5.43;;;3.67;;
20073;SDS011;10197;54.282;10.078;2023-07-08T07:56:13;4.40;;;3.38;;
20073;SDS011;10197;54.282;10.078;2023-07-08T07:58:41;5.05;;;3.53;;
20073;SDS011;10197;54.282;10.078;2023-07-08T08:01:08;4.57;;;3.00;;
20073;SDS011;10197;54.282;10.078;2023-07-08T08:03:35;3.63;;;3.25;;
20073;SDS011;10197;54.282;10.078;2023-07-08T08:06:02;4.20;;;3.15;;
20073;SDS011;10197;54.282;10.078;2023-07-08T08:08:29;4.72;;;3.47;;
20073;SDS011;10197;54.282;10.078;2023-07-08T08:10:56;4.80;;;3.40;;
20073;SDS011;10197;54.282;10.078;2023-07-08T08:13:23;4.32;;;3.53;;
20073;SDS011;10197;54.282;10.078;2023-07-08T08:15:56;6.28;;;3.28;;
20073;SDS011;10197;54.282;10.078;2023-07-08T08:18:23;6.88;;;3.30;;
20073;SDS011;10197;54.282;10.078;2023-07-08T08:20:50;4.68;;;3.50;;
20073;SDS011;10197;54.282;10.078;2023-07-08T08:23:17;5.53;;;3.50;;
20073;SDS011;10197;54.282;10.078;2023-07-08T08:25:44;4.53;;;3.17;;
20073;SDS011;10197;54.282;10.078;2023-07-08T08:28:11;3.70;;;3.35;;
20073;SDS011;10197;54.282;10.078;2023-07-08T08:30:38;3.10;;;2.80;;
20073;SDS011;10197;54.282;10.078;2023-07-08T08:33:06;4.00;;;3.60;;
20073;SDS011;10197;54.282;10.078;2023-07-08T08:35:33;3.67;;;3.28;;
20073;SDS011;10197;54.282;10.078;2023-07-08T08:38:00;3.55;;;3.17;;
20073;SDS011;10197;54.282;10.078;2023-07-08T08:40:28;3.92;;;3.35;;
20073;SDS011;10197;54.282;10.078;2023-07-08T08:42:57;5.03;;;3.75;;
20073;SDS011;10197;54.282;10.078;2023-07-08T08:45:27;3.63;;;3.13;;
20073;SDS011;10197;54.282;10.078;2023-07-08T08:47:56;6.15;;;3.78;;
20073;SDS011;10197;54.282;10.078;2023-07-08T08:50:29;4.13;;;3.08;;
20073;SDS011;10197;54.282;10.078;2023-07-08T08:52:59;6.68;;;3.60;;
20073;SDS011;10197;54.282;10.078;2023-07-08T08:55:29;4.72;;;3.20;;
20073;SDS011;10197;54.282;10.078;2023-07-08T08:58:06;5.22;;;3.40;;
20073;SDS011;10197;54.282;10.078;2023-07-08T09:00:43;4.55;;;3.40;;
20073;SDS011;10197;54.282;10.078;2023-07-08T09:03:12;3.70;;;3.15;;
20073;SDS011;10197;54.282;10.078;2023-07-08T09:05:43;4.68;;;3.63;;
20073;SDS011;10197;54.282;10.078;2023-07-08T09:08:13;6.20;;;4.10;;
20073;SDS011;10197;54.282;10.078;2023-07-08T09:10:44;3.78;;;3.08;;
20073;SDS011;10197;54.282;10.078;2023-07-08T09:13:15;5.07;;;3.08;;
20073;SDS011;10197;54.282;10.078;2023-07-08T09:15:45;4.50;;;3.17;;
20073;SDS011;10197;54.282;10.078;2023-07-08T09:18:14;3.55;;;3.13;;
20073;SDS011;10197;54.282;10.078;2023-07-08T09:20:47;4.47;;;3.13;;
20073;SDS011;10197;54.282;10.078;2023-07-08T09:23:17;4.72;;;3.28;;
20073;SDS011;10197;54.282;10.078;2023-07-08T09:25:49;3.75;;;3.30;;
20073;SDS011;10197;54.282;10.078;2023-07-08T09:28:37;4.25;;;3.28;;
20073;SDS011;10197;54.282;10.078;2023-07-08T09:31:05;4.40;;;3.20;;
20073;SDS011;10197;54.282;10.078;2023-07-08T09:33:33;3.88;;;2.67;;
20073;SDS011;10197;54.282;10.078;2023-07-08T09:36:06;5.00;;;3.15;;
20073;SDS011;10197;54.282;10.078;2023-07-08T09:38:42;3.88;;;3.20;;
20073;SDS011;10197;54.282;10.078;2023-07-08T09:41:13;3.25;;;2.90;;
20073;SDS011;10197;54.282;10.078;2023-07-08T09:43:40;3.50;;;3.00;;
20073;SDS011;10197;54.282;10.078;2023-07-08T09:46:08;3.28;;;2.97;;
20073;SDS011;10197;54.282;10.078;2023-07-08T09:48:37;7.10;;;3.30;;
20073;SDS011;10197;54.282;10.078;2023-07-08T09:51:04;5.53;;;3.20;;
20073;SDS011;10197;54.282;10.078;2023-07-08T09:53:34;6.88;;;2.85;;
20073;SDS011;10197;54.282;10.078;2023-07-08T09:56:02;4.72;;;3.13;;
20073;SDS011;10197;54.282;10.078;2023-07-08T09:58:30;5.38;;;3.63;;
20073;SDS011;10197;54.282;10.078;2023-07-08T10:01:00;5.97;;;3.10;;
20073;SDS011;10197;54.282;10.078;2023-07-08T10:03:32;4.78;;;3.30;;
20073;SDS011;10197;54.282;10.078;2023-07-08T10:06:02;4.57;;;3.38;;
20073;SDS011;10197;54.282;10.078;2023-07-08T10:08:34;3.70;;;3.13;;
20073;SDS011;10197;54.282;10.078;2023-07-08T10:11:10;8.15;;;3.83;;
20073;SDS011;10197;54.282;10.078;2023-07-08T10:13:41;5.65;;;3.25;;
20073;SDS011;10197;54.282;10.078;2023-07-08T10:16:12;7.28;;;3.20;;
20073;SDS011;10197;54.282;10.078;2023-07-08T10:18:41;6.30;;;3.70;;
20073;SDS011;10197;54.282;10.078;2023-07-08T10:21:12;3.75;;;3.17;;
20073;SDS011;10197;54.282;10.078;2023-07-08T10:23:48;3.88;;;3.38;;
20073;SDS011;10197;54.282;10.078;2023-07-08T10:26:21;5.00;;;3.92;;
20073;SDS011;10197;54.282;10.078;2023-07-08T10:28:54;4.30;;;3.33;;
20073;SDS011;10197;54.282;10.078;2023-07-08T10:31:30;4.65;;;3.28;;
20073;SDS011;10197;54.282;10.078;2023-07-08T10:34:02;4.43;;;3.03;;
20073;SDS011;10197;54.282;10.078;2023-07-08T10:36:42;3.90;;;3.05;;
20073;SDS011;10197;54.282;10.078;2023-07-08T10:42:06;4.97;;;3.30;;
20073;SDS011;10197;54.282;10.078;2023-07-08T10:44:43;3.15;;;2.60;;
20073;SDS011;10197;54.282;10.078;2023-07-08T10:47:15;5.07;;;3.03;;
20073;SDS011;10197;54.282;10.078;2023-07-08T10:49:56;6.93;;;2.92;;
20073;SDS011;10197;54.282;10.078;2023-07-08T10:52:31;6.25;;;2.80;;
20073;SDS011;10197;54.282;10.078;2023-07-08T10:55:10;4.35;;;3.38;;
20073;SDS011;10197;54.282;10.078;2023-07-08T10:57:56;4.13;;;3.03;;
20073;SDS011;10197;54.282;10.078;2023-07-08T11:00:46;5.07;;;3.10;;
20073;SDS011;10197;54.282;10.078;2023-07-08T11:03:32;3.97;;;3.22;;
20073;SDS011;10197;54.282;10.078;2023-07-08T11:06:06;7.60;;;3.25;;
20073;SDS011;10197;54.282;10.078;2023-07-08T11:08:37;4.95;;;3.22;;
20073;SDS011;10197;54.282;10.078;2023-07-08T11:11:09;4.00;;;3.38;;
20073;SDS011;10197;54.282;10.078;2023-07-08T11:13:43;4.80;;;3.00;;
20073;SDS011;10197;54.282;10.078;2023-07-08T11:16:15;5.88;;;2.97;;
20073;SDS011;10197;54.282;10.078;2023-07-08T11:18:47;6.43;;;4.78;;
20073;SDS011;10197;54.282;10.078;2023-07-08T11:21:17;3.55;;;3.13;;
20073;SDS011;10197;54.282;10.078;2023-07-08T11:23:49;4.97;;;3.13;;
20073;SDS011;10197;54.282;10.078;2023-07-08T11:26:20;3.47;;;2.70;;
20073;SDS011;10197;54.282;10.078;2023-07-08T11:28:51;4.22;;;2.75;;
20073;SDS011;10197;54.282;10.078;2023-07-08T11:31:19;7.55;;;2.72;;
20073;SDS011;10197;54.282;10.078;2023-07-08T11:33:46;3.78;;;2.60;;
20073;SDS011;10197;54.282;10.078;2023-07-08T11:36:14;4.57;;;3.13;;
20073;SDS011;10197;54.282;10.078;2023-07-08T11:38:47;3.95;;;2.75;;
20073;SDS011;10197;54.282;10.078;2023-07-08T11:41:15;5.38;;;3.00;;
20073;SDS011;10197;54.282;10.078;2023-07-08T11:43:46;5.80;;;2.92;;
20073;SDS011;10197;54.282;10.078;2023-07-08T11:46:14;4.30;;;3.00;;
20073;SDS011;10197;54.282;10.078;2023-07-08T11:48:45;5.03;;;3.00;;
20073;SDS011;10197;54.282;10.078;2023-07-08T11:51:17;5.00;;;2.92;;
20073;SDS011;10197;54.282;10.078;2023-07-08T11:53:49;4.80;;;2.92;;
20073;SDS011;10197;54.282;10.078;2023-07-08T11:56:18;3.92;;;3.10;;
20073;SDS011;10197;54.282;10.078;2023-07-08T11:58:54;5.85;;;2.95;;
20073;SDS011;10197;54.282;10.078;2023-07-08T12:01:31;3.75;;;2.83;;
20073;SDS011;10197;54.282;10.078;2023-07-08T12:04:00;3.00;;;2.65;;
20073;SDS011;10197;54.282;10.078;2023-07-08T12:06:44;5.03;;;2.83;;
20073;SDS011;10197;54.282;10.078;2023-07-08T12:09:14;5.13;;;2.67;;
20073;SDS011;10197;54.282;10.078;2023-07-08T12:11:43;4.43;;;2.65;;
20073;SDS011;10197;54.282;10.078;2023-07-08T12:14:12;4.57;;;2.90;;
20073;SDS011;10197;54.282;10.078;2023-07-08T12:16:40;3.63;;;3.10;;
20073;SDS011;10197;54.282;10.078;2023-07-08T12:19:09;5.15;;;3.05;;
20073;SDS011;10197;54.282;10.078;2023-07-08T12:21:40;4.35;;;2.80;;
20073;SDS011;10197;54.282;10.078;2023-07-08T12:24:10;5.68;;;3.60;;
20073;SDS011;10197;54.282;10.078;2023-07-08T12:26:37;5.95;;;3.00;;
20073;SDS011;10197;54.282;10.078;2023-07-08T12:29:04;11.25;;;2.88;;
20073;SDS011;10197;54.282;10.078;2023-07-08T12:31:33;4.65;;;3.53;;
20073;SDS011;10197;54.282;10.078;2023-07-08T12:34:00;3.25;;;2.80;;
20073;SDS011;10197;54.282;10.078;2023-07-08T12:36:27;5.50;;;3.08;;
20073;SDS011;10197;54.282;10.078;2023-07-08T12:38:58;4.10;;;2.70;;
20073;SDS011;10197;54.282;10.078;2023-07-08T12:41:29;5.55;;;2.42;;
20073;SDS011;10197;54.282;10.078;2023-07-08T12:43:57;4.05;;;2.67;;
20073;SDS011;10197;54.282;10.078;2023-07-08T12:46:24;3.00;;;2.70;;
20073;SDS011;10197;54.282;10.078;2023-07-08T12:48:53;4.13;;;2.80;;
20073;SDS011;10197;54.282;10.078;2023-07-08T12:51:21;7.90;;;2.92;;
20073;SDS011;10197;54.282;10.078;2023-07-08T12:53:50;4.47;;;2.95;;
20073;SDS011;10197;54.282;10.078;2023-07-08T12:56:17;4.57;;;2.80;;
20073;SDS011;10197;54.282;10.078;2023-07-08T12:58:46;8.50;;;3.10;;
20073;SDS011;10197;54.282;10.078;2023-07-08T13:01:17;4.85;;;2.90;;
20073;SDS011;10197;54.282;10.078;2023-07-08T13:03:54;3.03;;;2.70;;
20073;SDS011;10197;54.282;10.078;2023-07-08T13:06:23;5.70;;;2.67;;
20073;SDS011;10197;54.282;10.078;2023-07-08T13:08:52;3.72;;;2.47;;
20073;SDS011;10197;54.282;10.078;2023-07-08T13:11:21;6.30;;;2.80;;
20073;SDS011;10197;54.282;10.078;2023-07-08T13:13:50;6.00;;;2.90;;
20073;SDS011;10197;54.282;10.078;2023-07-08T13:16:22;3.38;;;2.90;;
20073;SDS011;10197;54.282;10.078;2023-07-08T13:18:50;4.05;;;2.60;;
20073;SDS011;10197;54.282;10.078;2023-07-08T13:21:18;2.92;;;2.50;;
20073;SDS011;10197;54.282;10.078;2023-07-08T13:23:45;7.93;;;2.90;;
20073;SDS011;10197;54.282;10.078;2023-07-08T13:26:12;3.50;;;2.47;;
20073;SDS011;10197;54.282;10.078;2023-07-08T13:28:40;4.45;;;2.95;;
20073;SDS011;10197;54.282;10.078;2023-07-08T13:31:14;3.78;;;2.83;;
20073;SDS011;10197;54.282;10.078;2023-07-08T13:33:45;4.60;;;2.72;;
20073;SDS011;10197;54.282;10.078;2023-07-08T13:36:13;3.38;;;2.50;;
20073;SDS011;10197;54.282;10.078;2023-07-08T13:38:41;3.28;;;2.38;;
20073;SDS011;10197;54.282;10.078;2023-07-08T13:41:08;4.18;;;2.60;;
20073;SDS011;10197;54.282;10.078;2023-07-08T13:43:38;4.57;;;2.30;;
20073;SDS011;10197;54.282;10.078;2023-07-08T13:46:06;3.25;;;2.83;;
20073;SDS011;10197;54.282;10.078;2023-07-08T13:48:48;4.10;;;2.78;;
20073;SDS011;10197;54.282;10.078;2023-07-08T13:51:18;4.72;;;3.08;;
20073;SDS011;10197;54.282;10.078;2023-07-08T13:53:48;7.00;;;3.90;;
20073;SDS011;10197;54.282;10.078;2023-07-08T13:56:18;5.80;;;4.22;;
20073;SDS011;10197;54.282;10.078;2023-07-08T13:58:47;5.18;;;4.25;;
20073;SDS011;10197;54.282;10.078;2023-07-08T14:01:17;5.07;;;4.10;;
20073;SDS011;10197;54.282;10.078;2023-07-08T14:03:45;5.30;;;4.30;;
20073;SDS011;10197;54.282;10.078;2023-07-08T14:06:13;6.10;;;4.47;;
20073;SDS011;10197;54.282;10.078;2023-07-08T14:08:40;5.03;;;3.70;;
20073;SDS011;10197;54.282;10.078;2023-07-08T14:11:09;4.30;;;3.78;;
20073;SDS011;10197;54.282;10.078;2023-07-08T14:13:36;4.97;;;3.40;;
20073;SDS011;10197;54.282;10.078;2023-07-08T14:16:03;4.78;;;3.03;;
20073;SDS011;10197;54.282;10.078;2023-07-08T14:18:30;4.15;;;3.00;;
20073;SDS011;10197;54.282;10.078;2023-07-08T14:20:57;5.03;;;3.20;;
20073;SDS011;10197;54.282;10.078;2023-07-08T14:23:24;5.90;;;3.00;;
20073;SDS011;10197;54.282;10.078;2023-07-08T14:25:52;6.18;;;3.00;;
20073;SDS011;10197;54.282;10.078;2023-07-08T14:28:20;4.72;;;2.85;;
20073;SDS011;10197;54.282;10.078;2023-07-08T14:30:47;3.67;;;2.67;;
20073;SDS011;10197;54.282;10.078;2023-07-08T14:33:14;3.95;;;2.90;;
20073;SDS011;10197;54.282;10.078;2023-07-08T14:35:42;4.88;;;2.63;;
20073;SDS011;10197;54.282;10.078;2023-07-08T14:38:10;3.80;;;2.40;;
20073;SDS011;10197;54.282;10.078;2023-07-08T14:40:37;3.55;;;2.70;;
20073;SDS011;10197;54.282;10.078;2023-07-08T14:43:05;5.40;;;3.03;;
20073;SDS011;10197;54.282;10.078;2023-07-08T14:45:37;4.03;;;2.70;;
20073;SDS011;10197;54.282;10.078;2023-07-08T14:48:07;5.63;;;2.60;;